Terminal Aerodrome Forecast
Issued by NWS

Home | Current Version | Previous Version | Text Only | Print | Product List | Glossary On
Versions: 1 2 3 4 5 6 7 8 9 10 11 12 13 14 15
000
FTUS41 KBGM 021700
TAFRME
TAF
KRME 021738Z 0218/0318 13005KT P6SM SCT025 BKN045
     FM030100 11005KT P6SM SKC
     FM031500 13011KT P6SM FEW250=

USA.gov is the U.S. government's official web portal to all federal, state and local government web resources and services.